Time;durP1;ratioP1;P1;durP2;ratioP2;P2;SDS_P1;SDS_P2;PMS_P1;PMS_P2;Temp;Humidity;BMP_temperature;BMP_pressure;BME280_temperature;BME280_humidity;BME280_pressure;Samples;Min_cycle;Max_cycle;Signal;HPM_P1;HPM_P2
2022/01/04 00:00:20;;;;;;;5.70;2.15;;;8.30;99.90;;;;;;5090832;28;20472;-46
2022/01/04 00:02:46;;;;;;;4.28;2.15;;;8.30;99.90;;;;;;5090970;28;20093;-46
2022/01/04 00:05:11;;;;;;;3.42;1.98;;;8.30;99.90;;;;;;5091221;28;20047;-45
2022/01/04 00:07:38;;;;;;;2.83;2.03;;;8.30;99.90;;;;;;5089887;28;20043;-47
2022/01/04 00:10:05;;;;;;;5.13;1.90;;;8.30;99.90;;;;;;5090885;28;20032;-45
2022/01/04 00:15:15;;;;;;;3.47;2.45;;;8.20;99.90;;;;;;5090699;28;20046;-45
2022/01/04 00:17:40;;;;;;;3.70;2.00;;;8.30;99.90;;;;;;5080669;28;20020;-46
2022/01/04 00:20:07;;;;;;;3.47;1.88;;;8.30;99.90;;;;;;5080930;28;20016;-47
2022/01/04 00:22:33;;;;;;;7.85;2.42;;;8.30;99.90;;;;;;5090692;28;20158;-46
2022/01/04 00:25:00;;;;;;;4.82;2.05;;;8.30;99.90;;;;;;5090652;28;20505;-46
2022/01/04 00:27:25;;;;;;;3.25;2.17;;;8.30;99.90;;;;;;5088471;28;20020;-46
2022/01/04 00:29:51;;;;;;;4.97;2.25;;;8.30;99.90;;;;;;5090737;28;20101;-48
2022/01/04 00:32:17;;;;;;;3.13;1.92;;;8.30;99.90;;;;;;5090350;28;20182;-46
2022/01/04 00:34:43;;;;;;;2.92;2.20;;;8.30;99.90;;;;;;5090474;28;20024;-47
2022/01/04 00:37:09;;;;;;;3.38;2.40;;;8.30;99.90;;;;;;5089926;28;20024;-49
2022/01/04 00:39:35;;;;;;;3.90;2.35;;;8.30;99.90;;;;;;5089848;28;20016;-47
2022/01/04 00:42:01;;;;;;;5.55;2.35;;;8.30;99.90;;;;;;5088605;28;20035;-49
2022/01/04 00:44:27;;;;;;;3.15;2.20;;;8.30;99.90;;;;;;5090188;28;20340;-46
2022/01/04 00:46:52;;;;;;;4.60;2.28;;;8.40;99.90;;;;;;5082782;28;20421;-45
2022/01/04 00:49:18;;;;;;;3.20;2.30;;;8.40;99.90;;;;;;5080566;28;20028;-46
2022/01/04 00:51:47;;;;;;;4.78;2.53;;;8.30;99.90;;;;;;5090392;28;20065;-48
2022/01/04 00:54:13;;;;;;;4.05;2.50;;;8.30;99.90;;;;;;5089874;28;20066;-46
2022/01/04 00:56:40;;;;;;;4.53;3.30;;;8.40;99.90;;;;;;5083670;28;20383;-46
2022/01/04 00:59:05;;;;;;;3.58;2.38;;;8.30;99.90;;;;;;5078950;28;20108;-46
2022/01/04 01:01:32;;;;;;;4.90;3.45;;;8.40;99.90;;;;;;5089943;28;20189;-46
2022/01/04 01:03:57;;;;;;;3.80;2.67;;;8.40;99.90;;;;;;5090143;28;20024;-47
2022/01/04 01:06:23;;;;;;;4.10;2.40;;;8.40;99.90;;;;;;5088769;28;20111;-49
2022/01/04 01:08:49;;;;;;;8.02;3.08;;;8.40;99.90;;;;;;5089033;28;20355;-46
2022/01/04 01:11:14;;;;;;;4.15;2.90;;;8.40;99.90;;;;;;5089517;28;20028;-48
2022/01/04 01:13:40;;;;;;;5.63;3.85;;;8.40;99.90;;;;;;5082846;28;20501;-47
2022/01/04 01:16:06;;;;;;;4.07;3.25;;;8.40;99.90;;;;;;5077870;28;20112;-45
2022/01/04 01:18:32;;;;;;;6.13;3.83;;;8.40;99.90;;;;;;5083005;28;20112;-48
2022/01/04 01:20:57;;;;;;;5.93;3.22;;;8.40;99.90;;;;;;5078030;28;20028;-46
2022/01/04 01:23:23;;;;;;;5.63;3.05;;;8.30;99.90;;;;;;5089706;28;20050;-46
2022/01/04 01:25:50;;;;;;;10.73;3.20;;;8.30;99.90;;;;;;5088143;28;20027;-48
2022/01/04 01:28:16;;;;;;;5.38;3.60;;;8.30;99.90;;;;;;5088696;28;20043;-46
2022/01/04 01:30:43;;;;;;;4.78;2.85;;;8.30;99.90;;;;;;5088964;28;20043;-45
2022/01/04 01:33:10;;;;;;;5.18;3.75;;;8.30;99.90;;;;;;5077094;28;20012;-48
2022/01/04 01:35:37;;;;;;;8.48;3.30;;;8.30;99.90;;;;;;5083201;28;20031;-46
2022/01/04 01:38:04;;;;;;;5.43;3.55;;;8.30;99.90;;;;;;5088404;28;20157;-49
2022/01/04 01:40:29;;;;;;;4.22;3.25;;;8.30;99.90;;;;;;5089365;28;20417;-47
2022/01/04 01:42:55;;;;;;;10.02;3.50;;;8.30;99.90;;;;;;5089101;28;20035;-47
2022/01/04 01:45:23;;;;;;;9.20;3.92;;;8.30;99.90;;;;;;5088772;28;20115;-48
2022/01/04 01:47:49;;;;;;;8.10;3.53;;;8.30;99.90;;;;;;5088275;28;20027;-45
2022/01/04 01:50:16;;;;;;;8.05;3.30;;;8.20;99.90;;;;;;5070866;28;20542;-49
2022/01/04 01:52:44;;;;;;;5.95;3.00;;;8.20;99.90;;;;;;5088860;28;20039;-47
2022/01/04 01:55:12;;;;;;;8.02;3.67;;;8.20;99.90;;;;;;5089092;28;20059;-48
2022/01/04 01:57:39;;;;;;;7.85;3.65;;;8.20;99.90;;;;;;5080727;28;20166;-47
2022/01/04 02:00:07;;;;;;;7.40;3.78;;;8.20;99.90;;;;;;5079602;28;20024;-47
2022/01/04 02:02:32;;;;;;;6.97;3.63;;;8.20;99.90;;;;;;5088857;28;20053;-49
2022/01/04 02:04:58;;;;;;;6.07;3.97;;;8.10;99.90;;;;;;5088416;28;20051;-46
2022/01/04 02:07:24;;;;;;;8.07;4.03;;;8.10;99.90;;;;;;5087987;28;20106;-46
2022/01/04 02:10:02;;;;;;;7.30;3.83;;;8.10;99.90;;;;;;5088965;28;20382;-48
2022/01/04 02:12:28;;;;;;;5.90;3.67;;;8.10;99.90;;;;;;5088725;28;20024;-47
2022/01/04 02:14:55;;;;;;;5.88;3.50;;;8.20;99.90;;;;;;5089221;28;20246;-47
2022/01/04 02:17:20;;;;;;;12.23;4.07;;;8.20;99.90;;;;;;5087843;28;20114;-46
2022/01/04 02:19:46;;;;;;;7.32;3.72;;;8.20;99.90;;;;;;5088627;28;20095;-47
2022/01/04 02:22:11;;;;;;;10.60;4.00;;;8.20;99.90;;;;;;5078103;28;20077;-46
2022/01/04 02:24:37;;;;;;;7.53;3.95;;;8.20;99.90;;;;;;5082817;28;20391;-46
2022/01/04 02:27:03;;;;;;;7.38;3.50;;;8.20;99.90;;;;;;5088363;28;20020;-48
2022/01/04 02:29:29;;;;;;;7.47;3.83;;;8.20;99.90;;;;;;5088490;28;20034;-48
2022/01/04 02:31:54;;;;;;;13.30;3.88;;;8.20;99.90;;;;;;5088541;28;20397;-49
2022/01/04 02:34:20;;;;;;;6.85;3.92;;;8.30;99.90;;;;;;5088528;28;20028;-46
2022/01/04 02:36:45;;;;;;;14.00;3.90;;;8.30;99.90;;;;;;5090961;28;20025;-46
2022/01/04 02:39:11;;;;;;;7.30;3.50;;;8.30;99.90;;;;;;5090747;28;20409;-47
2022/01/04 02:41:37;;;;;;;6.38;4.25;;;8.30;99.90;;;;;;5092483;28;20095;-48
2022/01/04 02:44:04;;;;;;;8.07;4.25;;;8.20;99.90;;;;;;5092639;28;20020;-46
2022/01/04 02:46:29;;;;;;;9.68;4.15;;;8.20;99.90;;;;;;5088335;28;20025;-45
2022/01/04 02:48:55;;;;;;;8.60;4.32;;;8.10;99.90;;;;;;5079681;28;20841;-46
2022/01/04 02:51:21;;;;;;;7.38;4.25;;;8.10;99.90;;;;;;5091027;28;20021;-45
2022/01/04 02:53:46;;;;;;;8.10;3.58;;;8.10;99.90;;;;;;5091248;28;20028;-46
2022/01/04 02:56:14;;;;;;;6.80;3.97;;;8.10;99.90;;;;;;5092412;28;20038;-47
2022/01/04 02:58:39;;;;;;;9.30;3.97;;;8.00;99.90;;;;;;5078775;28;20021;-46
2022/01/04 03:01:05;;;;;;;8.13;3.85;;;8.00;99.90;;;;;;5090124;28;20034;-45
2022/01/04 03:03:31;;;;;;;11.18;3.97;;;7.90;99.90;;;;;;5092096;28;20449;-45
2022/01/04 03:05:56;;;;;;;6.47;3.85;;;8.00;99.90;;;;;;5092328;28;20056;-48
2022/01/04 03:08:23;;;;;;;8.75;3.83;;;7.90;99.90;;;;;;5091447;28;20090;-47
2022/01/04 03:10:48;;;;;;;7.97;3.65;;;7.90;99.90;;;;;;5091970;28;20116;-45
2022/01/04 03:13:16;;;;;;;6.45;3.13;;;7.90;99.90;;;;;;5091719;28;20032;-47
2022/01/04 03:15:45;;;;;;;7.82;3.22;;;7.90;99.90;;;;;;5073202;28;20020;-46
2022/01/04 03:18:11;;;;;;;8.65;4.13;;;7.90;99.90;;;;;;5061734;28;20032;-45
2022/01/04 03:20:36;;;;;;;10.98;3.70;;;7.90;99.90;;;;;;5058766;28;20033;-47
2022/01/04 03:23:03;;;;;;;5.38;3.22;;;7.90;99.90;;;;;;5061809;28;20043;-46
2022/01/04 03:25:28;;;;;;;8.48;3.55;;;7.80;99.90;;;;;;5061588;28;20119;-49
2022/01/04 03:27:54;;;;;;;6.13;3.75;;;7.90;99.90;;;;;;5066446;28;20399;-46
2022/01/04 03:30:20;;;;;;;5.47;3.33;;;7.90;99.90;;;;;;5072472;28;20311;-46
2022/01/04 03:32:46;;;;;;;10.85;3.55;;;7.90;99.90;;;;;;5069001;28;20078;-48
2022/01/04 03:35:11;;;;;;;5.57;3.40;;;7.90;99.90;;;;;;5061697;28;20047;-46
2022/01/04 03:37:37;;;;;;;8.18;3.80;;;7.90;99.90;;;;;;5059416;28;20277;-45
2022/01/04 03:40:05;;;;;;;8.55;3.30;;;7.80;99.90;;;;;;5061184;28;20028;-45
2022/01/04 03:42:30;;;;;;;5.90;3.00;;;7.80;99.90;;;;;;5059923;28;20032;-46
2022/01/04 03:44:56;;;;;;;9.32;3.25;;;7.90;99.90;;;;;;5059724;28;20040;-46
2022/01/04 03:47:22;;;;;;;4.90;3.08;;;7.90;99.90;;;;;;5058463;28;20024;-45
2022/01/04 03:49:47;;;;;;;6.53;3.10;;;7.90;99.90;;;;;;5061767;28;20037;-46
2022/01/04 03:52:13;;;;;;;8.45;3.42;;;7.90;99.90;;;;;;5060763;28;20123;-45
2022/01/04 03:54:38;;;;;;;5.15;3.28;;;7.90;99.90;;;;;;5057395;28;20025;-46
2022/01/04 03:57:04;;;;;;;9.05;3.30;;;7.90;99.90;;;;;;5063118;28;20398;-46
2022/01/04 03:59:30;;;;;;;8.60;3.22;;;7.90;99.90;;;;;;5060521;28;20024;-46
2022/01/04 04:01:55;;;;;;;6.30;2.67;;;7.90;99.90;;;;;;5062215;28;20025;-48
2022/01/04 04:04:21;;;;;;;17.08;3.35;;;7.90;99.90;;;;;;5065823;28;20043;-47
2022/01/04 04:06:47;;;;;;;8.05;3.65;;;7.90;99.90;;;;;;5061971;28;20025;-45
2022/01/04 04:09:12;;;;;;;10.68;4.35;;;7.90;99.90;;;;;;5065306;28;20408;-47
2022/01/04 04:11:38;;;;;;;7.43;3.00;;;7.90;99.90;;;;;;5076280;28;20025;-46
2022/01/04 04:14:04;;;;;;;10.35;3.50;;;7.90;99.90;;;;;;5077654;28;20603;-47
2022/01/04 04:16:29;;;;;;;9.02;3.20;;;7.90;99.90;;;;;;5083594;28;20028;-46
2022/01/04 04:18:55;;;;;;;10.18;3.08;;;7.90;99.90;;;;;;5080668;28;20031;-45
2022/01/04 04:21:20;;;;;;;9.57;3.17;;;7.90;99.90;;;;;;5082181;28;20024;-46
2022/01/04 04:23:46;;;;;;;8.70;3.10;;;7.90;99.90;;;;;;5090749;28;20024;-48
2022/01/04 04:26:11;;;;;;;4.78;3.08;;;7.90;99.90;;;;;;5089328;28;20035;-45
2022/01/04 04:28:37;;;;;;;10.52;3.65;;;7.80;99.90;;;;;;5089584;28;20024;-46
2022/01/04 04:31:03;;;;;;;9.52;2.95;;;7.80;99.90;;;;;;5090479;28;20483;-45
2022/01/04 04:33:29;;;;;;;6.13;3.10;;;7.90;99.90;;;;;;5090486;28;20102;-49
2022/01/04 04:35:55;;;;;;;6.00;2.97;;;7.90;99.90;;;;;;5090522;28;20240;-45
2022/01/04 04:38:20;;;;;;;5.43;3.00;;;7.90;99.90;;;;;;5089872;28;20047;-45
2022/01/04 04:40:46;;;;;;;10.85;3.45;;;7.90;99.90;;;;;;5090413;28;20028;-45
2022/01/04 04:43:11;;;;;;;5.97;3.55;;;7.90;99.90;;;;;;5090530;28;20023;-45
2022/01/04 04:45:37;;;;;;;12.77;4.15;;;7.80;99.90;;;;;;5090273;28;20028;-46
2022/01/04 04:48:03;;;;;;;5.75;3.03;;;7.80;99.90;;;;;;5089597;28;20040;-47
2022/01/04 04:50:29;;;;;;;6.00;3.75;;;7.80;99.90;;;;;;5078477;28;20038;-45
2022/01/04 04:52:54;;;;;;;5.75;3.33;;;7.80;99.90;;;;;;5085082;28;20039;-46
2022/01/04 04:55:20;;;;;;;5.25;3.20;;;7.80;99.90;;;;;;5090135;28;20174;-46
2022/01/04 04:57:46;;;;;;;8.30;3.75;;;7.80;99.90;;;;;;5083912;28;20030;-45
2022/01/04 05:00:12;;;;;;;5.85;3.58;;;7.80;99.90;;;;;;5079288;28;20031;-46
2022/01/04 05:02:37;;;;;;;6.82;3.55;;;7.80;99.90;;;;;;5066364;28;20478;-49
2022/01/04 05:05:03;;;;;;;7.25;3.67;;;7.70;99.90;;;;;;5069714;28;20153;-47
2022/01/04 05:07:29;;;;;;;7.38;3.03;;;7.70;99.90;;;;;;5066407;28;20406;-47
2022/01/04 05:09:55;;;;;;;6.13;3.63;;;7.70;99.90;;;;;;5076631;28;20031;-45
2022/01/04 05:12:20;;;;;;;5.88;3.28;;;7.70;99.90;;;;;;5081611;28;20406;-49
2022/01/04 05:14:46;;;;;;;5.85;3.20;;;7.70;99.90;;;;;;5085752;28;20042;-48
2022/01/04 05:17:13;;;;;;;8.80;3.75;;;7.70;99.90;;;;;;5080689;28;20337;-46
2022/01/04 05:19:39;;;;;;;7.03;3.15;;;7.70;99.90;;;;;;5089554;28;20453;-46
2022/01/04 05:22:04;;;;;;;4.72;3.33;;;7.70;99.90;;;;;;5089455;28;20052;-45
2022/01/04 05:24:30;;;;;;;7.90;3.42;;;7.70;99.90;;;;;;5089924;28;20115;-49
2022/01/04 05:26:55;;;;;;;4.75;2.60;;;7.70;99.90;;;;;;5089432;28;20073;-45
2022/01/04 05:29:21;;;;;;;7.68;3.03;;;7.70;99.90;;;;;;5082703;28;20086;-46
2022/01/04 05:31:46;;;;;;;5.78;3.00;;;7.70;99.90;;;;;;5080821;28;20525;-46
2022/01/04 05:34:12;;;;;;;6.05;3.25;;;7.70;99.90;;;;;;5089307;28;20069;-47
2022/01/04 05:36:37;;;;;;;5.60;3.25;;;7.70;99.90;;;;;;5081253;28;20093;-46
2022/01/04 05:39:03;;;;;;;7.88;3.00;;;7.60;99.90;;;;;;5058957;28;20509;-45
2022/01/04 05:41:30;;;;;;;4.88;3.13;;;7.60;99.90;;;;;;5063513;28;20056;-46
2022/01/04 05:43:55;;;;;;;7.78;2.80;;;7.60;99.90;;;;;;5059026;28;20442;-47
2022/01/04 05:46:21;;;;;;;3.65;2.33;;;7.60;99.90;;;;;;5065346;28;20064;-45
2022/01/04 05:48:46;;;;;;;3.80;2.63;;;7.60;99.90;;;;;;5055937;28;20035;-46
2022/01/04 05:51:12;;;;;;;4.45;2.90;;;7.50;99.90;;;;;;5065390;28;20021;-46
2022/01/04 05:53:37;;;;;;;7.13;2.70;;;7.50;99.90;;;;;;5057543;28;20542;-45
2022/01/04 05:56:03;;;;;;;6.28;2.92;;;7.50;99.90;;;;;;5064095;28;20028;-46
2022/01/04 05:58:29;;;;;;;6.25;2.20;;;7.50;99.90;;;;;;5057817;28;20459;-45
2022/01/04 06:00:54;;;;;;;5.90;2.50;;;7.50;99.90;;;;;;5058271;28;20470;-46
2022/01/04 06:03:20;;;;;;;7.97;2.78;;;7.50;99.90;;;;;;5057429;28;20150;-46
2022/01/04 06:05:45;;;;;;;6.93;2.65;;;7.60;99.90;;;;;;5059536;28;20232;-45
2022/01/04 06:08:11;;;;;;;6.05;3.03;;;7.50;99.90;;;;;;5057827;28;20013;-47
2022/01/04 06:10:40;;;;;;;4.40;2.70;;;7.50;99.90;;;;;;5062040;28;20012;-46
2022/01/04 06:15:31;;;;;;;3.88;2.67;;;7.50;99.90;;;;;;5051113;28;20092;-47
2022/01/04 06:17:57;;;;;;;3.53;2.60;;;7.50;99.90;;;;;;5060150;28;20021;-47
2022/01/04 06:20:24;;;;;;;6.43;2.90;;;7.50;99.90;;;;;;5065466;28;20031;-45
2022/01/04 06:22:53;;;;;;;4.00;2.63;;;7.50;99.90;;;;;;5065515;28;20501;-48
2022/01/04 06:25:21;;;;;;;4.40;2.45;;;7.60;99.90;;;;;;5056381;28;20284;-45
2022/01/04 06:27:48;;;;;;;4.80;2.85;;;7.60;99.90;;;;;;5058824;28;20025;-45
2022/01/04 06:30:18;;;;;;;4.20;2.70;;;7.60;99.90;;;;;;5060476;28;20908;-44
2022/01/04 06:32:45;;;;;;;3.90;2.47;;;7.60;99.90;;;;;;5058817;28;20037;-45
2022/01/04 06:35:13;;;;;;;4.78;3.03;;;7.60;99.90;;;;;;5057273;28;20036;-48
2022/01/04 06:37:41;;;;;;;3.33;2.58;;;7.60;99.90;;;;;;5062682;28;20378;-45
2022/01/04 06:40:08;;;;;;;4.63;2.72;;;7.60;99.90;;;;;;5076432;28;20062;-44
2022/01/04 06:42:33;;;;;;;3.65;2.60;;;7.60;99.90;;;;;;5071252;28;20031;-45
2022/01/04 06:44:59;;;;;;;3.53;2.60;;;7.60;99.90;;;;;;5064847;28;20025;-46
2022/01/04 06:47:24;;;;;;;3.03;2.50;;;7.60;99.90;;;;;;5059797;28;20024;-45
2022/01/04 06:49:50;;;;;;;4.60;3.10;;;7.60;99.90;;;;;;5075440;28;20047;-46
2022/01/04 06:52:15;;;;;;;3.15;2.20;;;7.60;99.90;;;;;;5078749;28;20077;-47
2022/01/04 06:54:41;;;;;;;5.00;2.55;;;7.60;99.90;;;;;;5086814;28;20032;-47
2022/01/04 06:57:06;;;;;;;5.32;2.40;;;7.60;99.90;;;;;;5062613;28;20036;-48
2022/01/04 06:59:32;;;;;;;4.45;2.10;;;7.60;99.90;;;;;;5065065;28;20108;-46
2022/01/04 07:01:57;;;;;;;3.85;2.55;;;7.70;99.90;;;;;;5061482;28;20029;-47
2022/01/04 07:04:23;;;;;;;8.35;2.50;;;7.60;99.90;;;;;;5054069;28;20041;-47
2022/01/04 07:06:48;;;;;;;2.70;2.00;;;7.60;99.90;;;;;;5075683;28;20432;-46
2022/01/04 07:09:14;;;;;;;5.35;2.30;;;7.60;99.90;;;;;;5084196;28;20040;-49
2022/01/04 07:11:39;;;;;;;4.78;2.38;;;7.60;99.90;;;;;;5075454;28;20032;-47
2022/01/04 07:14:05;;;;;;;5.75;2.63;;;7.60;99.90;;;;;;5076580;28;20485;-47
2022/01/04 07:16:30;;;;;;;3.33;2.33;;;7.60;99.90;;;;;;5053464;28;20475;-47
2022/01/04 07:18:56;;;;;;;5.75;2.53;;;7.60;99.90;;;;;;5075169;28;20035;-47
2022/01/04 07:21:22;;;;;;;4.88;2.78;;;7.60;99.90;;;;;;5064881;28;20471;-46
2022/01/04 07:23:48;;;;;;;4.93;2.40;;;7.60;99.90;;;;;;5051290;28;20168;-48
2022/01/04 07:26:15;;;;;;;5.68;3.05;;;7.60;99.90;;;;;;5065474;28;20441;-50
2022/01/04 07:28:42;;;;;;;7.63;3.22;;;7.60;99.90;;;;;;5054662;28;20029;-48
2022/01/04 07:31:08;;;;;;;4.40;2.92;;;7.60;99.90;;;;;;5078676;28;20032;-47
2022/01/04 07:33:34;;;;;;;4.18;3.10;;;7.60;99.90;;;;;;5079966;28;20572;-49
2022/01/04 07:35:59;;;;;;;7.55;3.40;;;7.60;99.90;;;;;;5060897;28;20140;-46
2022/01/04 07:38:25;;;;;;;5.60;3.22;;;7.70;99.90;;;;;;5069071;28;20541;-47
2022/01/04 07:40:51;;;;;;;4.93;3.00;;;7.70;99.90;;;;;;5069852;28;20482;-47
2022/01/04 07:43:16;;;;;;;6.70;3.08;;;7.60;99.90;;;;;;5065140;28;20931;-50
2022/01/04 07:45:42;;;;;;;7.45;4.30;;;7.60;99.90;;;;;;5058616;28;20407;-48
2022/01/04 07:48:10;;;;;;;6.03;3.25;;;7.60;99.90;;;;;;5061232;28;20048;-47
2022/01/04 07:50:37;;;;;;;5.50;3.20;;;7.60;99.90;;;;;;5063259;28;20095;-49
2022/01/04 07:53:03;;;;;;;6.05;3.63;;;7.60;99.90;;;;;;5066857;28;20071;-47
2022/01/04 07:55:29;;;;;;;8.00;3.17;;;7.60;99.90;;;;;;5062342;28;20024;-49
2022/01/04 07:57:54;;;;;;;8.00;4.05;;;7.60;99.90;;;;;;5064790;28;20025;-48
2022/01/04 08:00:20;;;;;;;6.28;3.40;;;7.70;99.90;;;;;;5068979;28;20050;-50
2022/01/04 08:02:46;;;;;;;4.70;3.33;;;7.70;99.90;;;;;;5064367;28;20107;-49
2022/01/04 08:05:12;;;;;;;4.78;3.22;;;7.70;99.90;;;;;;5057865;28;20725;-47
2022/01/04 08:07:37;;;;;;;6.25;3.28;;;7.70;99.90;;;;;;5089654;28;20506;-50
2022/01/04 08:10:04;;;;;;;4.45;3.17;;;7.80;99.90;;;;;;5082326;28;20024;-48
2022/01/04 08:12:30;;;;;;;4.47;2.92;;;7.80;99.90;;;;;;5090418;28;20020;-48
2022/01/04 08:14:56;;;;;;;7.88;3.28;;;7.80;99.90;;;;;;5057323;28;20024;-47
2022/01/04 08:17:21;;;;;;;4.82;3.30;;;7.90;99.90;;;;;;5056859;28;20056;-47
2022/01/04 08:19:47;;;;;;;6.95;3.65;;;7.80;99.90;;;;;;5066083;28;20497;-47
2022/01/04 08:22:12;;;;;;;6.00;3.10;;;7.90;99.90;;;;;;5061260;28;20032;-49
2022/01/04 08:24:38;;;;;;;7.78;3.63;;;7.90;99.90;;;;;;5054687;28;20036;-46
2022/01/04 08:27:04;;;;;;;13.27;5.15;;;7.90;99.90;;;;;;5059498;28;20086;-48
2022/01/04 08:29:31;;;;;;;5.18;3.45;;;7.90;99.90;;;;;;5058420;28;20128;-50
2022/01/04 08:31:58;;;;;;;7.70;4.18;;;7.90;99.90;;;;;;5070005;28;20363;-50
2022/01/04 08:34:23;;;;;;;9.30;3.40;;;7.90;99.90;;;;;;5052072;28;20131;-49
2022/01/04 08:36:49;;;;;;;6.05;3.28;;;7.90;99.90;;;;;;5071320;28;20526;-49
2022/01/04 08:39:14;;;;;;;8.80;3.47;;;7.80;99.90;;;;;;5067562;28;20466;-48
2022/01/04 08:41:50;;;;;;;7.07;3.70;;;7.80;99.90;;;;;;5056971;28;20036;-48
2022/01/04 08:44:15;;;;;;;6.18;3.90;;;7.80;99.90;;;;;;5053584;28;20031;-47
2022/01/04 08:46:41;;;;;;;6.03;3.67;;;7.90;99.90;;;;;;5061650;28;20469;-50
2022/01/04 08:49:07;;;;;;;6.57;3.80;;;7.90;99.90;;;;;;5069014;28;20040;-50
2022/01/04 08:51:33;;;;;;;4.47;3.00;;;7.90;99.90;;;;;;5071164;28;20029;-50
2022/01/04 08:53:59;;;;;;;6.72;4.22;;;7.90;99.90;;;;;;5054462;28;20029;-46
2022/01/04 08:56:25;;;;;;;6.55;3.78;;;7.90;99.90;;;;;;5055882;28;20417;-47
2022/01/04 08:58:50;;;;;;;4.75;3.53;;;8.00;99.90;;;;;;5063755;28;20375;-47
2022/01/04 09:01:16;;;;;;;6.68;3.78;;;8.00;99.90;;;;;;5076249;28;20032;-46
2022/01/04 09:03:41;;;;;;;5.50;3.72;;;7.90;99.90;;;;;;5069678;28;20029;-47
2022/01/04 09:06:09;;;;;;;5.22;3.60;;;7.90;99.90;;;;;;5053703;28;20112;-47
2022/01/04 09:08:36;;;;;;;7.18;4.47;;;7.90;99.90;;;;;;5060852;28;20032;-47
2022/01/04 09:11:01;;;;;;;4.25;3.40;;;8.00;99.90;;;;;;5056959;28;20028;-47
2022/01/04 09:13:33;;;;;;;6.43;4.07;;;8.00;99.90;;;;;;5070786;28;20026;-50
2022/01/04 09:21:19;;;;;;;6.90;4.03;;;8.00;99.90;;;;;;5050697;28;20036;-46
2022/01/04 09:23:46;;;;;;;7.88;4.05;;;8.00;99.90;;;;;;5048249;28;20043;-46
2022/01/04 09:26:13;;;;;;;5.63;3.95;;;8.00;99.90;;;;;;5050520;28;20043;-48
2022/01/04 09:28:39;;;;;;;5.40;4.03;;;8.10;99.90;;;;;;5059494;28;20060;-46
2022/01/04 09:31:05;;;;;;;6.47;4.68;;;8.00;99.90;;;;;;5070136;28;20113;-46
2022/01/04 09:33:32;;;;;;;5.60;4.18;;;8.00;99.90;;;;;;5056937;28;20017;-48
2022/01/04 09:35:59;;;;;;;8.10;4.50;;;8.00;99.90;;;;;;5050952;28;20021;-48
2022/01/04 09:38:25;;;;;;;6.25;4.88;;;8.00;99.90;;;;;;5048513;28;20025;-49
2022/01/04 09:40:53;;;;;;;6.20;4.57;;;8.10;99.90;;;;;;5052109;28;20017;-47
2022/01/04 09:43:20;;;;;;;9.00;5.03;;;8.00;99.90;;;;;;5075843;28;20078;-46
2022/01/04 09:45:47;;;;;;;5.28;4.78;;;8.00;99.90;;;;;;5067929;28;20020;-46
2022/01/04 09:48:13;;;;;;;6.63;4.97;;;8.10;99.90;;;;;;5071286;28;20070;-47
2022/01/04 09:50:40;;;;;;;6.50;5.07;;;8.10;99.90;;;;;;5058612;28;20028;-46
2022/01/04 09:53:08;;;;;;;5.63;4.60;;;8.10;99.90;;;;;;5053956;28;20035;-46
2022/01/04 09:55:34;;;;;;;6.22;4.78;;;8.20;99.90;;;;;;5071773;28;20159;-46
2022/01/04 09:58:01;;;;;;;9.70;5.40;;;8.20;99.90;;;;;;5075948;28;20021;-46
2022/01/04 10:00:27;;;;;;;7.85;4.63;;;8.30;99.90;;;;;;5066011;28;20043;-50
2022/01/04 10:03:09;;;;;;;8.52;5.28;;;8.30;99.90;;;;;;5071513;28;20029;-48
2022/01/04 10:05:34;;;;;;;9.23;5.57;;;8.30;99.90;;;;;;5058301;28;20024;-48
2022/01/04 10:08:03;;;;;;;8.32;5.65;;;8.30;99.90;;;;;;5061635;28;20033;-49
2022/01/04 10:10:29;;;;;;;7.55;5.55;;;8.30;99.90;;;;;;5063625;28;20383;-46
2022/01/04 10:13:01;;;;;;;8.38;5.55;;;8.30;99.90;;;;;;5066442;28;20028;-49
2022/01/04 10:15:47;;;;;;;10.13;5.00;;;8.40;99.90;;;;;;5065627;28;20023;-47
2022/01/04 10:18:13;;;;;;;8.32;5.97;;;8.40;99.90;;;;;;5073240;28;20017;-47
2022/01/04 10:20:46;;;;;;;11.70;6.07;;;8.40;99.90;;;;;;5074034;28;20498;-48
2022/01/04 10:23:14;;;;;;;10.07;6.10;;;8.40;99.90;;;;;;5069734;28;20024;-46
2022/01/04 10:25:40;;;;;;;9.15;5.82;;;8.40;99.90;;;;;;5064405;28;20032;-47
2022/01/04 10:28:06;;;;;;;10.48;6.00;;;8.40;99.90;;;;;;5057651;28;20300;-47
2022/01/04 10:30:38;;;;;;;10.55;5.40;;;8.40;99.90;;;;;;5058534;28;20025;-48
2022/01/04 10:33:10;;;;;;;9.32;5.40;;;8.40;99.90;;;;;;5065209;28;20371;-47
2022/01/04 10:35:45;;;;;;;11.38;6.90;;;8.40;99.90;;;;;;5059132;28;20478;-48
2022/01/04 10:38:19;;;;;;;11.82;6.20;;;8.50;99.90;;;;;;5058373;28;20057;-46
2022/01/04 10:41:07;;;;;;;11.73;6.28;;;8.50;99.90;;;;;;5058733;28;20044;-47
2022/01/04 10:43:52;;;;;;;10.77;6.22;;;8.50;99.90;;;;;;5056963;28;20032;-48
2022/01/04 10:46:30;;;;;;;10.65;6.30;;;8.60;99.90;;;;;;5056158;28;20044;-48
2022/01/04 10:48:56;;;;;;;10.73;6.10;;;8.60;99.90;;;;;;5063967;28;20112;-48
2022/01/04 10:51:22;;;;;;;10.70;6.97;;;8.60;99.90;;;;;;5060384;28;20119;-47
2022/01/04 10:53:52;;;;;;;9.90;6.53;;;8.60;99.90;;;;;;5059144;28;20487;-46
2022/01/04 10:56:32;;;;;;;15.83;7.13;;;8.60;99.90;;;;;;5060603;28;20033;-47
2022/01/04 10:59:08;;;;;;;15.00;6.55;;;8.70;99.90;;;;;;5062890;28;20116;-48
2022/01/04 11:01:45;;;;;;;10.85;6.65;;;8.60;99.90;;;;;;5074494;28;20055;-46
2022/01/04 11:04:16;;;;;;;11.77;6.75;;;8.60;99.90;;;;;;5057322;28;20051;-50
2022/01/04 11:06:43;;;;;;;10.57;7.18;;;8.60;99.90;;;;;;5056243;28;20534;-49
2022/01/04 11:09:10;;;;;;;9.02;6.43;;;8.60;99.90;;;;;;5072831;28;20024;-47
2022/01/04 11:11:36;;;;;;;14.93;7.55;;;8.50;99.90;;;;;;5058790;28;20044;-49
2022/01/04 11:14:02;;;;;;;10.73;5.75;;;8.60;99.90;;;;;;5053272;28;20095;-47
2022/01/04 11:16:29;;;;;;;9.80;7.00;;;8.60;99.90;;;;;;5062075;28;20055;-47
2022/01/04 11:18:56;;;;;;;22.45;8.02;;;8.60;99.90;;;;;;5063268;28;20028;-49
2022/01/04 11:21:24;;;;;;;10.43;7.20;;;8.50;99.90;;;;;;5082705;28;20531;-47
2022/01/04 11:23:51;;;;;;;11.45;6.53;;;8.60;99.90;;;;;;5073292;28;20644;-47
2022/01/04 11:26:19;;;;;;;14.15;6.97;;;8.70;99.90;;;;;;5072163;28;20025;-47
2022/01/04 11:28:47;;;;;;;12.13;6.72;;;8.70;99.90;;;;;;5071917;28;20036;-50
2022/01/04 11:31:50;;;;;;;13.13;7.05;;;8.70;99.90;;;;;;5072931;28;20466;-47
2022/01/04 11:34:16;;;;;;;10.93;6.68;;;8.70;99.90;;;;;;5070217;28;20071;-48
2022/01/04 11:36:44;;;;;;;15.55;6.50;;;8.70;99.90;;;;;;5060713;28;20434;-47
2022/01/04 11:39:25;;;;;;;14.13;6.82;;;8.80;99.90;;;;;;5066767;28;20023;-48
2022/01/04 11:41:51;;;;;;;13.30;7.13;;;8.80;99.90;;;;;;5067010;28;20025;-48
2022/01/04 11:44:19;;;;;;;12.90;6.35;;;8.70;99.90;;;;;;5055591;28;20367;-50
2022/01/04 11:46:59;;;;;;;13.23;6.40;;;8.70;99.90;;;;;;5060500;28;20027;-48
2022/01/04 11:49:24;;;;;;;16.98;7.32;;;8.80;99.90;;;;;;5057213;28;20045;-50
2022/01/04 11:51:50;;;;;;;13.18;6.72;;;8.80;99.90;;;;;;5051194;28;20392;-47
2022/01/04 11:54:30;;;;;;;14.68;8.05;;;8.80;99.90;;;;;;5058203;28;20024;-48
2022/01/04 11:57:03;;;;;;;14.38;7.45;;;8.80;99.90;;;;;;5063434;28;20099;-47
2022/01/04 11:59:45;;;;;;;12.70;6.85;;;8.70;99.90;;;;;;5070183;28;20029;-49
2022/01/04 12:02:31;;;;;;;13.57;7.20;;;8.70;99.90;;;;;;5082617;28;20107;-47
2022/01/04 12:04:59;;;;;;;14.48;6.97;;;8.80;99.90;;;;;;5092169;28;20028;-47
2022/01/04 12:07:42;;;;;;;11.65;7.03;;;8.80;99.90;;;;;;5063611;28;20032;-47
2022/01/04 12:10:20;;;;;;;17.50;8.35;;;8.80;99.90;;;;;;5057251;28;20060;-47
2022/01/04 12:13:10;;;;;;;15.52;7.85;;;8.90;99.90;;;;;;5051338;28;20371;-49
2022/01/04 12:15:36;;;;;;;13.90;7.75;;;8.90;99.90;;;;;;5058146;28;20021;-50
2022/01/04 12:18:24;;;;;;;13.48;7.35;;;8.90;99.90;;;;;;5057538;28;20036;-46
2022/01/04 12:20:56;;;;;;;16.60;8.73;;;8.80;99.90;;;;;;5049783;28;20056;-47
2022/01/04 12:23:27;;;;;;;14.48;8.18;;;8.80;99.90;;;;;;5068496;28;20024;-46
2022/01/04 12:28:31;;;;;;;16.08;7.72;;;8.70;99.90;;;;;;5053619;28;20025;-47
2022/01/04 12:31:19;;;;;;;18.25;8.57;;;8.70;99.90;;;;;;5080062;28;20080;-46
2022/01/04 12:33:48;;;;;;;15.02;7.97;;;8.70;99.90;;;;;;5082011;28;20466;-47
2022/01/04 12:36:41;;;;;;;14.77;8.18;;;8.70;99.90;;;;;;5071684;28;20360;-46
2022/01/04 12:39:14;;;;;;;16.05;8.00;;;8.80;99.90;;;;;;5063789;28;20024;-49
2022/01/04 12:41:42;;;;;;;15.27;9.10;;;8.80;99.90;;;;;;5061051;28;20027;-46
2022/01/04 12:44:10;;;;;;;19.52;9.23;;;8.80;99.90;;;;;;5065328;28;20029;-47
2022/01/04 12:46:41;;;;;;;19.27;9.77;;;8.80;99.90;;;;;;5069294;28;20108;-47
2022/01/04 12:49:09;;;;;;;18.05;9.77;;;8.80;99.90;;;;;;5063369;28;20041;-46
2022/01/04 12:51:47;;;;;;;18.33;9.05;;;8.80;99.90;;;;;;5051071;28;20029;-51
2022/01/04 12:54:15;;;;;;;16.95;9.63;;;8.80;99.90;;;;;;5081260;28;20028;-46
2022/01/04 12:56:51;;;;;;;19.55;10.55;;;8.70;99.90;;;;;;5090023;28;20048;-47
2022/01/04 12:59:22;;;;;;;21.08;10.77;;;8.70;99.90;;;;;;5083614;28;20029;-49
2022/01/04 13:01:52;;;;;;;21.40;9.88;;;8.80;99.90;;;;;;5073946;28;20582;-47
2022/01/04 13:04:20;;;;;;;17.48;10.05;;;8.80;99.90;;;;;;5071400;28;20032;-47
2022/01/04 13:06:47;;;;;;;24.35;9.50;;;8.70;99.90;;;;;;5071081;28;20047;-46
2022/01/04 13:09:17;;;;;;;20.15;10.23;;;8.70;99.90;;;;;;5055516;28;20637;-46